sensor_id;sensor_type;location;lat;lon;timestamp;P1;durP1;ratioP1;P2;durP2;ratioP2
9848;SDS011;4963;51.444;6.528;2022-08-21T00:01:50;4.85;;;3.30;;
9848;SDS011;4963;51.444;6.528;2022-08-21T00:04:17;6.60;;;3.85;;
9848;SDS011;4963;51.444;6.528;2022-08-21T00:06:44;6.82;;;3.33;;
9848;SDS011;4963;51.444;6.528;2022-08-21T00:09:11;6.78;;;3.50;;
9848;SDS011;4963;51.444;6.528;2022-08-21T00:11:39;6.60;;;3.47;;
9848;SDS011;4963;51.444;6.528;2022-08-21T00:14:07;5.38;;;3.15;;
9848;SDS011;4963;51.444;6.528;2022-08-21T00:16:35;5.88;;;3.10;;
9848;SDS011;4963;51.444;6.528;2022-08-21T00:19:03;7.28;;;3.47;;
9848;SDS011;4963;51.444;6.528;2022-08-21T00:21:31;5.72;;;3.20;;
9848;SDS011;4963;51.444;6.528;2022-08-21T00:23:58;5.32;;;3.45;;
9848;SDS011;4963;51.444;6.528;2022-08-21T00:26:25;6.65;;;3.75;;
9848;SDS011;4963;51.444;6.528;2022-08-21T00:28:53;6.93;;;3.88;;
9848;SDS011;4963;51.444;6.528;2022-08-21T00:31:20;6.95;;;4.28;;
9848;SDS011;4963;51.444;6.528;2022-08-21T00:33:47;5.65;;;3.40;;
9848;SDS011;4963;51.444;6.528;2022-08-21T00:36:14;5.88;;;3.65;;
9848;SDS011;4963;51.444;6.528;2022-08-21T00:38:41;6.00;;;3.33;;
9848;SDS011;4963;51.444;6.528;2022-08-21T00:41:08;7.78;;;3.78;;
9848;SDS011;4963;51.444;6.528;2022-08-21T00:43:37;4.28;;;3.22;;
9848;SDS011;4963;51.444;6.528;2022-08-21T00:46:06;8.65;;;3.58;;
9848;SDS011;4963;51.444;6.528;2022-08-21T00:48:34;5.45;;;3.25;;
9848;SDS011;4963;51.444;6.528;2022-08-21T00:51:03;7.65;;;4.07;;
9848;SDS011;4963;51.444;6.528;2022-08-21T00:53:32;4.85;;;3.97;;
9848;SDS011;4963;51.444;6.528;2022-08-21T00:56:01;8.73;;;3.85;;
9848;SDS011;4963;51.444;6.528;2022-08-21T00:58:30;5.95;;;3.50;;
9848;SDS011;4963;51.444;6.528;2022-08-21T01:01:00;5.10;;;3.47;;
9848;SDS011;4963;51.444;6.528;2022-08-21T01:03:31;5.68;;;3.80;;
9848;SDS011;4963;51.444;6.528;2022-08-21T01:05:59;6.05;;;3.28;;
9848;SDS011;4963;51.444;6.528;2022-08-21T01:08:27;7.53;;;3.58;;
9848;SDS011;4963;51.444;6.528;2022-08-21T01:10:55;5.60;;;3.58;;
9848;SDS011;4963;51.444;6.528;2022-08-21T01:13:24;10.60;;;4.28;;
9848;SDS011;4963;51.444;6.528;2022-08-21T01:15:54;6.95;;;3.58;;
9848;SDS011;4963;51.444;6.528;2022-08-21T01:18:22;7.68;;;3.50;;
9848;SDS011;4963;51.444;6.528;2022-08-21T01:21:02;6.45;;;3.53;;
9848;SDS011;4963;51.444;6.528;2022-08-21T01:23:31;6.28;;;3.30;;
9848;SDS011;4963;51.444;6.528;2022-08-21T01:25:59;8.40;;;3.85;;
9848;SDS011;4963;51.444;6.528;2022-08-21T01:28:26;6.13;;;3.58;;
9848;SDS011;4963;51.444;6.528;2022-08-21T01:30:56;5.97;;;3.40;;
9848;SDS011;4963;51.444;6.528;2022-08-21T01:33:24;5.35;;;3.80;;
9848;SDS011;4963;51.444;6.528;2022-08-21T01:35:51;6.03;;;3.40;;
9848;SDS011;4963;51.444;6.528;2022-08-21T01:38:19;8.38;;;3.67;;
9848;SDS011;4963;51.444;6.528;2022-08-21T01:40:46;7.70;;;3.60;;
9848;SDS011;4963;51.444;6.528;2022-08-21T01:43:13;5.07;;;3.85;;
9848;SDS011;4963;51.444;6.528;2022-08-21T01:45:40;4.80;;;3.78;;
9848;SDS011;4963;51.444;6.528;2022-08-21T01:48:07;6.40;;;3.70;;
9848;SDS011;4963;51.444;6.528;2022-08-21T01:50:34;6.77;;;3.77;;
9848;SDS011;4963;51.444;6.528;2022-08-21T01:53:02;7.47;;;3.72;;
9848;SDS011;4963;51.444;6.528;2022-08-21T01:55:30;7.43;;;3.40;;
9848;SDS011;4963;51.444;6.528;2022-08-21T01:57:57;4.27;;;3.10;;
9848;SDS011;4963;51.444;6.528;2022-08-21T02:00:25;5.47;;;3.60;;
9848;SDS011;4963;51.444;6.528;2022-08-21T02:02:52;6.40;;;3.20;;
9848;SDS011;4963;51.444;6.528;2022-08-21T02:05:19;5.33;;;3.53;;
9848;SDS011;4963;51.444;6.528;2022-08-21T02:07:47;5.00;;;3.40;;
9848;SDS011;4963;51.444;6.528;2022-08-21T02:10:16;7.90;;;3.40;;
9848;SDS011;4963;51.444;6.528;2022-08-21T02:12:45;6.00;;;4.63;;
9848;SDS011;4963;51.444;6.528;2022-08-21T02:15:12;4.93;;;4.00;;
9848;SDS011;4963;51.444;6.528;2022-08-21T02:17:41;5.47;;;4.10;;
9848;SDS011;4963;51.444;6.528;2022-08-21T02:20:10;8.38;;;4.55;;
9848;SDS011;4963;51.444;6.528;2022-08-21T02:22:40;7.15;;;4.00;;
9848;SDS011;4963;51.444;6.528;2022-08-21T02:25:07;4.30;;;3.90;;
9848;SDS011;4963;51.444;6.528;2022-08-21T02:27:37;7.03;;;4.10;;
9848;SDS011;4963;51.444;6.528;2022-08-21T02:30:09;6.87;;;4.00;;
9848;SDS011;4963;51.444;6.528;2022-08-21T02:32:38;6.83;;;4.00;;
9848;SDS011;4963;51.444;6.528;2022-08-21T02:35:06;6.67;;;4.50;;
9848;SDS011;4963;51.444;6.528;2022-08-21T02:37:34;6.28;;;4.68;;
9848;SDS011;4963;51.444;6.528;2022-08-21T02:40:08;4.97;;;3.93;;
9848;SDS011;4963;51.444;6.528;2022-08-21T02:42:36;6.83;;;4.13;;
9848;SDS011;4963;51.444;6.528;2022-08-21T02:45:03;4.40;;;3.73;;
9848;SDS011;4963;51.444;6.528;2022-08-21T02:47:32;4.90;;;3.70;;
9848;SDS011;4963;51.444;6.528;2022-08-21T02:49:59;6.53;;;4.10;;
9848;SDS011;4963;51.444;6.528;2022-08-21T02:52:26;5.90;;;4.40;;
9848;SDS011;4963;51.444;6.528;2022-08-21T02:54:53;7.87;;;4.83;;
9848;SDS011;4963;51.444;6.528;2022-08-21T02:57:20;8.00;;;4.77;;
9848;SDS011;4963;51.444;6.528;2022-08-21T02:59:47;5.90;;;3.97;;
9848;SDS011;4963;51.444;6.528;2022-08-21T03:02:14;7.40;;;4.27;;
9848;SDS011;4963;51.444;6.528;2022-08-21T03:04:42;6.47;;;4.20;;
9848;SDS011;4963;51.444;6.528;2022-08-21T03:07:09;5.33;;;3.80;;
9848;SDS011;4963;51.444;6.528;2022-08-21T03:09:36;5.50;;;4.37;;
9848;SDS011;4963;51.444;6.528;2022-08-21T03:12:03;6.33;;;4.10;;
9848;SDS011;4963;51.444;6.528;2022-08-21T03:14:30;7.10;;;4.70;;
9848;SDS011;4963;51.444;6.528;2022-08-21T03:16:57;6.23;;;5.07;;
9848;SDS011;4963;51.444;6.528;2022-08-21T03:19:24;6.30;;;4.30;;
9848;SDS011;4963;51.444;6.528;2022-08-21T03:21:53;5.03;;;4.50;;
9848;SDS011;4963;51.444;6.528;2022-08-21T03:24:19;5.53;;;4.80;;
9848;SDS011;4963;51.444;6.528;2022-08-21T03:26:46;6.43;;;5.57;;
9848;SDS011;4963;51.444;6.528;2022-08-21T03:29:13;6.40;;;5.27;;
9848;SDS011;4963;51.444;6.528;2022-08-21T03:31:40;6.37;;;5.27;;
9848;SDS011;4963;51.444;6.528;2022-08-21T03:34:07;6.20;;;4.57;;
9848;SDS011;4963;51.444;6.528;2022-08-21T03:36:34;6.37;;;4.50;;
9848;SDS011;4963;51.444;6.528;2022-08-21T03:39:02;6.77;;;4.73;;
9848;SDS011;4963;51.444;6.528;2022-08-21T03:41:30;5.17;;;4.60;;
9848;SDS011;4963;51.444;6.528;2022-08-21T03:43:57;6.60;;;4.77;;
9848;SDS011;4963;51.444;6.528;2022-08-21T03:46:24;7.10;;;5.03;;
9848;SDS011;4963;51.444;6.528;2022-08-21T03:48:51;6.40;;;5.10;;
9848;SDS011;4963;51.444;6.528;2022-08-21T03:51:18;6.30;;;4.70;;
9848;SDS011;4963;51.444;6.528;2022-08-21T03:53:45;6.33;;;5.10;;
9848;SDS011;4963;51.444;6.528;2022-08-21T03:56:13;6.80;;;4.60;;
9848;SDS011;4963;51.444;6.528;2022-08-21T03:58:41;6.33;;;5.43;;
9848;SDS011;4963;51.444;6.528;2022-08-21T04:01:09;5.30;;;4.80;;
9848;SDS011;4963;51.444;6.528;2022-08-21T04:03:36;7.90;;;5.80;;
9848;SDS011;4963;51.444;6.528;2022-08-21T04:06:04;5.73;;;4.37;;
9848;SDS011;4963;51.444;6.528;2022-08-21T04:08:32;7.17;;;5.07;;
9848;SDS011;4963;51.444;6.528;2022-08-21T04:11:00;6.93;;;5.10;;
9848;SDS011;4963;51.444;6.528;2022-08-21T04:13:28;7.83;;;4.77;;
9848;SDS011;4963;51.444;6.528;2022-08-21T04:15:55;9.10;;;5.50;;
9848;SDS011;4963;51.444;6.528;2022-08-21T04:18:24;12.13;;;6.80;;
9848;SDS011;4963;51.444;6.528;2022-08-21T04:20:51;7.43;;;5.90;;
9848;SDS011;4963;51.444;6.528;2022-08-21T04:23:20;7.67;;;5.57;;
9848;SDS011;4963;51.444;6.528;2022-08-21T04:25:47;7.53;;;4.93;;
9848;SDS011;4963;51.444;6.528;2022-08-21T04:28:14;10.80;;;5.77;;
9848;SDS011;4963;51.444;6.528;2022-08-21T04:30:42;7.37;;;5.73;;
9848;SDS011;4963;51.444;6.528;2022-08-21T04:33:10;10.00;;;6.27;;
9848;SDS011;4963;51.444;6.528;2022-08-21T04:35:37;7.73;;;6.40;;
9848;SDS011;4963;51.444;6.528;2022-08-21T04:38:04;9.17;;;6.73;;
9848;SDS011;4963;51.444;6.528;2022-08-21T04:40:31;8.63;;;6.80;;
9848;SDS011;4963;51.444;6.528;2022-08-21T04:43:00;9.40;;;7.70;;
9848;SDS011;4963;51.444;6.528;2022-08-21T04:45:30;11.17;;;7.63;;
9848;SDS011;4963;51.444;6.528;2022-08-21T04:48:01;9.70;;;6.87;;
9848;SDS011;4963;51.444;6.528;2022-08-21T04:50:31;7.63;;;6.63;;
9848;SDS011;4963;51.444;6.528;2022-08-21T04:53:04;8.47;;;6.87;;
9848;SDS011;4963;51.444;6.528;2022-08-21T04:55:33;10.97;;;7.03;;
9848;SDS011;4963;51.444;6.528;2022-08-21T04:58:00;10.07;;;7.93;;
9848;SDS011;4963;51.444;6.528;2022-08-21T05:00:27;9.80;;;7.47;;
9848;SDS011;4963;51.444;6.528;2022-08-21T05:02:54;13.53;;;7.47;;
9848;SDS011;4963;51.444;6.528;2022-08-21T05:05:25;9.97;;;7.33;;
9848;SDS011;4963;51.444;6.528;2022-08-21T05:07:54;8.93;;;7.73;;
9848;SDS011;4963;51.444;6.528;2022-08-21T05:10:23;13.00;;;7.60;;
9848;SDS011;4963;51.444;6.528;2022-08-21T05:12:50;8.70;;;7.30;;
9848;SDS011;4963;51.444;6.528;2022-08-21T05:15:17;8.90;;;7.50;;
9848;SDS011;4963;51.444;6.528;2022-08-21T05:17:44;9.40;;;7.27;;
9848;SDS011;4963;51.444;6.528;2022-08-21T05:20:12;8.63;;;7.30;;
9848;SDS011;4963;51.444;6.528;2022-08-21T05:22:41;8.30;;;7.07;;
9848;SDS011;4963;51.444;6.528;2022-08-21T05:25:09;9.43;;;6.57;;
9848;SDS011;4963;51.444;6.528;2022-08-21T05:27:36;9.53;;;6.83;;
9848;SDS011;4963;51.444;6.528;2022-08-21T05:30:04;7.43;;;6.23;;
9848;SDS011;4963;51.444;6.528;2022-08-21T05:32:32;8.83;;;6.63;;
9848;SDS011;4963;51.444;6.528;2022-08-21T05:34:59;8.80;;;6.23;;
9848;SDS011;4963;51.444;6.528;2022-08-21T05:37:26;7.60;;;5.93;;
9848;SDS011;4963;51.444;6.528;2022-08-21T05:39:54;8.30;;;5.95;;
9848;SDS011;4963;51.444;6.528;2022-08-21T05:42:21;8.25;;;5.95;;
9848;SDS011;4963;51.444;6.528;2022-08-21T05:44:48;6.35;;;5.53;;
9848;SDS011;4963;51.444;6.528;2022-08-21T05:47:15;8.80;;;6.00;;
9848;SDS011;4963;51.444;6.528;2022-08-21T05:49:42;9.43;;;5.57;;
9848;SDS011;4963;51.444;6.528;2022-08-21T05:52:08;6.70;;;5.32;;
9848;SDS011;4963;51.444;6.528;2022-08-21T05:54:35;9.95;;;5.82;;
9848;SDS011;4963;51.444;6.528;2022-08-21T05:57:04;6.60;;;5.78;;
9848;SDS011;4963;51.444;6.528;2022-08-21T05:59:33;9.93;;;5.55;;
9848;SDS011;4963;51.444;6.528;2022-08-21T06:02:01;9.55;;;5.55;;
9848;SDS011;4963;51.444;6.528;2022-08-21T06:04:28;6.97;;;5.43;;
9848;SDS011;4963;51.444;6.528;2022-08-21T06:06:54;10.40;;;5.55;;
9848;SDS011;4963;51.444;6.528;2022-08-21T06:09:21;12.15;;;6.00;;
9848;SDS011;4963;51.444;6.528;2022-08-21T06:11:48;8.55;;;5.43;;
9848;SDS011;4963;51.444;6.528;2022-08-21T06:14:16;6.78;;;4.55;;
9848;SDS011;4963;51.444;6.528;2022-08-21T06:16:43;9.02;;;4.97;;
9848;SDS011;4963;51.444;6.528;2022-08-21T06:19:10;7.20;;;4.88;;
9848;SDS011;4963;51.444;6.528;2022-08-21T06:21:38;8.23;;;4.60;;
9848;SDS011;4963;51.444;6.528;2022-08-21T06:24:04;8.88;;;4.78;;
9848;SDS011;4963;51.444;6.528;2022-08-21T06:26:32;10.77;;;5.13;;
9848;SDS011;4963;51.444;6.528;2022-08-21T06:28:59;8.05;;;4.18;;
9848;SDS011;4963;51.444;6.528;2022-08-21T06:31:27;12.13;;;5.13;;
9848;SDS011;4963;51.444;6.528;2022-08-21T06:33:54;10.48;;;4.68;;
9848;SDS011;4963;51.444;6.528;2022-08-21T06:36:22;9.00;;;4.60;;
9848;SDS011;4963;51.444;6.528;2022-08-21T06:38:49;8.30;;;4.70;;
9848;SDS011;4963;51.444;6.528;2022-08-21T06:41:16;8.65;;;4.20;;
9848;SDS011;4963;51.444;6.528;2022-08-21T06:43:43;7.38;;;4.32;;
9848;SDS011;4963;51.444;6.528;2022-08-21T06:46:10;7.15;;;4.13;;
9848;SDS011;4963;51.444;6.528;2022-08-21T06:48:38;8.82;;;4.47;;
9848;SDS011;4963;51.444;6.528;2022-08-21T06:51:05;8.93;;;4.32;;
9848;SDS011;4963;51.444;6.528;2022-08-21T06:53:31;6.30;;;3.78;;
9848;SDS011;4963;51.444;6.528;2022-08-21T06:55:58;9.73;;;4.03;;
9848;SDS011;4963;51.444;6.528;2022-08-21T06:58:25;7.68;;;3.80;;
9848;SDS011;4963;51.444;6.528;2022-08-21T07:00:52;7.50;;;3.65;;
9848;SDS011;4963;51.444;6.528;2022-08-21T07:03:20;7.05;;;3.60;;
9848;SDS011;4963;51.444;6.528;2022-08-21T07:05:50;6.20;;;3.45;;
9848;SDS011;4963;51.444;6.528;2022-08-21T07:08:17;9.45;;;3.17;;
9848;SDS011;4963;51.444;6.528;2022-08-21T07:10:44;7.70;;;3.85;;
9848;SDS011;4963;51.444;6.528;2022-08-21T07:13:12;6.47;;;2.92;;
9848;SDS011;4963;51.444;6.528;2022-08-21T07:15:39;5.97;;;3.05;;
9848;SDS011;4963;51.444;6.528;2022-08-21T07:18:06;5.50;;;3.22;;
9848;SDS011;4963;51.444;6.528;2022-08-21T07:20:33;9.65;;;3.22;;
9848;SDS011;4963;51.444;6.528;2022-08-21T07:23:02;6.45;;;3.25;;
9848;SDS011;4963;51.444;6.528;2022-08-21T07:25:33;7.40;;;3.40;;
9848;SDS011;4963;51.444;6.528;2022-08-21T07:28:00;6.72;;;3.30;;
9848;SDS011;4963;51.444;6.528;2022-08-21T07:30:27;8.10;;;3.22;;
9848;SDS011;4963;51.444;6.528;2022-08-21T07:32:54;6.05;;;3.08;;
9848;SDS011;4963;51.444;6.528;2022-08-21T07:35:21;8.40;;;3.40;;
9848;SDS011;4963;51.444;6.528;2022-08-21T07:37:48;7.70;;;3.20;;
9848;SDS011;4963;51.444;6.528;2022-08-21T07:40:17;6.63;;;2.85;;
9848;SDS011;4963;51.444;6.528;2022-08-21T07:42:44;6.03;;;2.83;;
9848;SDS011;4963;51.444;6.528;2022-08-21T07:45:14;6.78;;;2.80;;
9848;SDS011;4963;51.444;6.528;2022-08-21T07:47:42;5.00;;;2.53;;
9848;SDS011;4963;51.444;6.528;2022-08-21T07:50:09;7.60;;;2.72;;
9848;SDS011;4963;51.444;6.528;2022-08-21T07:52:37;4.93;;;2.30;;
9848;SDS011;4963;51.444;6.528;2022-08-21T07:55:04;8.98;;;2.53;;
9848;SDS011;4963;51.444;6.528;2022-08-21T07:57:34;5.82;;;2.15;;
9848;SDS011;4963;51.444;6.528;2022-08-21T08:00:01;8.13;;;2.78;;
9848;SDS011;4963;51.444;6.528;2022-08-21T08:02:29;4.93;;;2.20;;
9848;SDS011;4963;51.444;6.528;2022-08-21T08:04:58;8.38;;;2.05;;
9848;SDS011;4963;51.444;6.528;2022-08-21T08:07:26;8.15;;;2.38;;
9848;SDS011;4963;51.444;6.528;2022-08-21T08:09:53;7.18;;;2.25;;
9848;SDS011;4963;51.444;6.528;2022-08-21T08:12:19;6.07;;;2.40;;
9848;SDS011;4963;51.444;6.528;2022-08-21T08:14:48;4.22;;;2.10;;
9848;SDS011;4963;51.444;6.528;2022-08-21T08:17:15;4.75;;;1.70;;
9848;SDS011;4963;51.444;6.528;2022-08-21T08:19:44;6.28;;;2.40;;
9848;SDS011;4963;51.444;6.528;2022-08-21T08:22:13;6.57;;;2.00;;
9848;SDS011;4963;51.444;6.528;2022-08-21T08:24:41;4.80;;;1.75;;
9848;SDS011;4963;51.444;6.528;2022-08-21T08:27:08;4.57;;;1.92;;
9848;SDS011;4963;51.444;6.528;2022-08-21T08:29:35;5.97;;;2.10;;
9848;SDS011;4963;51.444;6.528;2022-08-21T08:32:04;4.78;;;1.70;;
9848;SDS011;4963;51.444;6.528;2022-08-21T08:34:32;4.38;;;1.80;;
9848;SDS011;4963;51.444;6.528;2022-08-21T08:36:59;5.15;;;1.88;;
9848;SDS011;4963;51.444;6.528;2022-08-21T08:39:26;4.30;;;1.63;;
9848;SDS011;4963;51.444;6.528;2022-08-21T08:41:54;3.80;;;1.75;;
9848;SDS011;4963;51.444;6.528;2022-08-21T08:44:25;5.25;;;1.95;;
9848;SDS011;4963;51.444;6.528;2022-08-21T08:46:52;3.78;;;1.77;;
9848;SDS011;4963;51.444;6.528;2022-08-21T08:49:23;4.45;;;1.70;;
9848;SDS011;4963;51.444;6.528;2022-08-21T08:51:53;6.13;;;2.13;;
9848;SDS011;4963;51.444;6.528;2022-08-21T08:54:25;5.05;;;2.22;;
9848;SDS011;4963;51.444;6.528;2022-08-21T08:56:58;4.60;;;2.03;;
9848;SDS011;4963;51.444;6.528;2022-08-21T08:59:27;4.70;;;2.13;;
9848;SDS011;4963;51.444;6.528;2022-08-21T09:02:02;6.80;;;2.33;;
9848;SDS011;4963;51.444;6.528;2022-08-21T09:04:31;5.85;;;2.28;;
9848;SDS011;4963;51.444;6.528;2022-08-21T09:07:01;3.47;;;2.15;;
9848;SDS011;4963;51.444;6.528;2022-08-21T09:09:43;6.32;;;2.53;;
9848;SDS011;4963;51.444;6.528;2022-08-21T09:12:18;7.70;;;2.33;;
9848;SDS011;4963;51.444;6.528;2022-08-21T09:15:09;7.88;;;2.53;;
9848;SDS011;4963;51.444;6.528;2022-08-21T09:17:48;6.05;;;2.28;;
9848;SDS011;4963;51.444;6.528;2022-08-21T09:20:29;4.40;;;2.45;;
9848;SDS011;4963;51.444;6.528;2022-08-21T09:23:06;7.05;;;2.65;;
9848;SDS011;4963;51.444;6.528;2022-08-21T09:25:42;10.48;;;2.53;;
9848;SDS011;4963;51.444;6.528;2022-08-21T09:28:19;5.90;;;2.38;;
9848;SDS011;4963;51.444;6.528;2022-08-21T09:30:46;6.47;;;2.40;;
9848;SDS011;4963;51.444;6.528;2022-08-21T09:33:13;7.90;;;2.65;;
9848;SDS011;4963;51.444;6.528;2022-08-21T09:35:50;5.90;;;2.30;;
9848;SDS011;4963;51.444;6.528;2022-08-21T09:38:28;4.35;;;2.15;;
9848;SDS011;4963;51.444;6.528;2022-08-21T09:40:59;7.60;;;2.38;;
9848;SDS011;4963;51.444;6.528;2022-08-21T09:43:28;7.90;;;2.08;;
9848;SDS011;4963;51.444;6.528;2022-08-21T09:48:46;5.85;;;2.50;;
9848;SDS011;4963;51.444;6.528;2022-08-21T09:51:17;3.65;;;1.70;;
9848;SDS011;4963;51.444;6.528;2022-08-21T09:53:46;7.30;;;2.08;;
9848;SDS011;4963;51.444;6.528;2022-08-21T09:56:18;7.05;;;1.95;;
9848;SDS011;4963;51.444;6.528;2022-08-21T09:59:13;4.75;;;1.83;;
9848;SDS011;4963;51.444;6.528;2022-08-21T10:01:45;4.75;;;1.67;;
9848;SDS011;4963;51.444;6.528;2022-08-21T10:04:14;3.58;;;1.60;;
9848;SDS011;4963;51.444;6.528;2022-08-21T10:06:42;4.30;;;1.40;;
9848;SDS011;4963;51.444;6.528;2022-08-21T10:09:10;4.43;;;1.67;;
9848;SDS011;4963;51.444;6.528;2022-08-21T10:11:39;2.83;;;1.52;;
9848;SDS011;4963;51.444;6.528;2022-08-21T10:14:13;4.82;;;1.95;;
9848;SDS011;4963;51.444;6.528;2022-08-21T10:16:48;3.95;;;1.63;;
9848;SDS011;4963;51.444;6.528;2022-08-21T10:19:26;4.38;;;1.67;;
9848;SDS011;4963;51.444;6.528;2022-08-21T10:22:03;4.57;;;1.77;;
9848;SDS011;4963;51.444;6.528;2022-08-21T10:24:45;6.60;;;1.88;;
9848;SDS011;4963;51.444;6.528;2022-08-21T10:27:20;4.32;;;1.70;;
9848;SDS011;4963;51.444;6.528;2022-08-21T10:29:57;5.05;;;1.58;;
9848;SDS011;4963;51.444;6.528;2022-08-21T10:32:34;5.10;;;1.80;;
9848;SDS011;4963;51.444;6.528;2022-08-21T10:35:10;2.50;;;1.20;;
9848;SDS011;4963;51.444;6.528;2022-08-21T10:37:48;3.05;;;1.40;;
9848;SDS011;4963;51.444;6.528;2022-08-21T10:40:26;3.33;;;1.80;;
9848;SDS011;4963;51.444;6.528;2022-08-21T10:43:00;3.80;;;1.55;;
9848;SDS011;4963;51.444;6.528;2022-08-21T10:45:36;4.28;;;1.45;;
9848;SDS011;4963;51.444;6.528;2022-08-21T10:48:12;2.58;;;1.40;;
9848;SDS011;4963;51.444;6.528;2022-08-21T10:50:48;6.20;;;1.58;;
9848;SDS011;4963;51.444;6.528;2022-08-21T10:56:12;3.88;;;1.60;;
9848;SDS011;4963;51.444;6.528;2022-08-21T10:58:45;3.80;;;1.38;;
9848;SDS011;4963;51.444;6.528;2022-08-21T11:01:27;3.08;;;1.48;;
9848;SDS011;4963;51.444;6.528;2022-08-21T11:04:04;3.25;;;1.40;;
9848;SDS011;4963;51.444;6.528;2022-08-21T11:06:38;3.90;;;1.33;;
9848;SDS011;4963;51.444;6.528;2022-08-21T11:09:12;4.10;;;1.73;;
9848;SDS011;4963;51.444;6.528;2022-08-21T11:11:41;4.20;;;1.58;;
9848;SDS011;4963;51.444;6.528;2022-08-21T11:14:16;3.03;;;1.27;;
9848;SDS011;4963;51.444;6.528;2022-08-21T11:16:51;4.53;;;1.92;;
9848;SDS011;4963;51.444;6.528;2022-08-21T11:19:24;4.55;;;1.63;;
9848;SDS011;4963;51.444;6.528;2022-08-21T11:21:58;3.40;;;1.45;;
9848;SDS011;4963;51.444;6.528;2022-08-21T11:24:35;5.20;;;1.58;;
9848;SDS011;4963;51.444;6.528;2022-08-21T11:27:16;2.55;;;1.42;;
9848;SDS011;4963;51.444;6.528;2022-08-21T11:29:48;3.78;;;1.80;;
9848;SDS011;4963;51.444;6.528;2022-08-21T11:32:23;2.72;;;1.27;;
9848;SDS011;4963;51.444;6.528;2022-08-21T11:35:23;1.88;;;1.02;;
9848;SDS011;4963;51.444;6.528;2022-08-21T11:38:00;2.60;;;1.42;;
9848;SDS011;4963;51.444;6.528;2022-08-21T11:40:44;5.32;;;1.60;;
9848;SDS011;4963;51.444;6.528;2022-08-21T11:43:21;3.22;;;1.35;;
9848;SDS011;4963;51.444;6.528;2022-08-21T11:45:54;4.15;;;1.58;;
9848;SDS011;4963;51.444;6.528;2022-08-21T11:48:28;3.33;;;1.35;;
9848;SDS011;4963;51.444;6.528;2022-08-21T11:51:04;3.83;;;1.60;;
9848;SDS011;4963;51.444;6.528;2022-08-21T11:53:37;4.75;;;2.05;;
9848;SDS011;4963;51.444;6.528;2022-08-21T11:56:10;3.15;;;1.58;;
9848;SDS011;4963;51.444;6.528;2022-08-21T11:58:41;2.67;;;1.52;;
9848;SDS011;4963;51.444;6.528;2022-08-21T12:01:12;3.20;;;1.42;;
9848;SDS011;4963;51.444;6.528;2022-08-21T12:03:50;2.83;;;1.30;;
9848;SDS011;4963;51.444;6.528;2022-08-21T12:06:27;3.90;;;1.85;;
9848;SDS011;4963;51.444;6.528;2022-08-21T12:08:57;3.33;;;1.35;;
9848;SDS011;4963;51.444;6.528;2022-08-21T12:11:27;3.35;;;1.17;;
9848;SDS011;4963;51.444;6.528;2022-08-21T12:13:55;5.85;;;1.90;;
9848;SDS011;4963;51.444;6.528;2022-08-21T12:16:30;3.15;;;1.30;;
9848;SDS011;4963;51.444;6.528;2022-08-21T12:19:02;4.57;;;1.80;;
9848;SDS011;4963;51.444;6.528;2022-08-21T12:21:31;3.90;;;1.45;;
9848;SDS011;4963;51.444;6.528;2022-08-21T12:24:03;3.67;;;1.67;;
9848;SDS011;4963;51.444;6.528;2022-08-21T12:26:49;3.95;;;1.50;;
9848;SDS011;4963;51.444;6.528;2022-08-21T12:29:21;2.85;;;1.58;;
9848;SDS011;4963;51.444;6.528;2022-08-21T12:31:53;3.63;;;1.75;;
9848;SDS011;4963;51.444;6.528;2022-08-21T12:34:23;3.83;;;1.58;;
9848;SDS011;4963;51.444;6.528;2022-08-21T12:36:57;3.95;;;1.70;;
9848;SDS011;4963;51.444;6.528;2022-08-21T12:39:26;4.03;;;1.95;;
9848;SDS011;4963;51.444;6.528;2022-08-21T12:41:59;4.38;;;1.65;;
9848;SDS011;4963;51.444;6.528;2022-08-21T12:44:33;4.38;;;1.75;;
9848;SDS011;4963;51.444;6.528;2022-08-21T12:47:11;7.00;;;1.90;;
9848;SDS011;4963;51.444;6.528;2022-08-21T12:49:43;10.82;;;1.92;;
9848;SDS011;4963;51.444;6.528;2022-08-21T12:52:19;6.30;;;1.92;;
9848;SDS011;4963;51.444;6.528;2022-08-21T12:54:48;3.42;;;1.40;;
9848;SDS011;4963;51.444;6.528;2022-08-21T12:57:20;3.83;;;1.50;;
9848;SDS011;4963;51.444;6.528;2022-08-21T12:59:53;5.90;;;1.60;;
9848;SDS011;4963;51.444;6.528;2022-08-21T13:02:22;4.97;;;1.80;;
9848;SDS011;4963;51.444;6.528;2022-08-21T13:04:51;4.57;;;1.30;;
9848;SDS011;4963;51.444;6.528;2022-08-21T13:07:22;2.28;;;1.52;;
9848;SDS011;4963;51.444;6.528;2022-08-21T13:09:53;3.83;;;1.38;;
9848;SDS011;4963;51.444;6.528;2022-08-21T13:12:24;3.30;;;1.50;;
9848;SDS011;4963;51.444;6.528;2022-08-21T13:14:52;4.63;;;1.70;;
9848;SDS011;4963;51.444;6.528;2022-08-21T13:17:23;4.00;;;1.70;;
9848;SDS011;4963;51.444;6.528;2022-08-21T13:19:58;3.72;;;1.58;;
9848;SDS011;4963;51.444;6.528;2022-08-21T13:22:26;5.13;;;1.92;;
9848;SDS011;4963;51.444;6.528;2022-08-21T13:24:55;3.95;;;1.80;;
9848;SDS011;4963;51.444;6.528;2022-08-21T13:27:24;2.00;;;1.30;;
9848;SDS011;4963;51.444;6.528;2022-08-21T13:30:02;4.78;;;1.50;;
9848;SDS011;4963;51.444;6.528;2022-08-21T13:32:33;5.90;;;1.67;;
9848;SDS011;4963;51.444;6.528;2022-08-21T13:35:07;3.17;;;1.50;;
9848;SDS011;4963;51.444;6.528;2022-08-21T13:37:36;4.07;;;1.50;;
9848;SDS011;4963;51.444;6.528;2022-08-21T13:40:07;4.85;;;1.60;;
9848;SDS011;4963;51.444;6.528;2022-08-21T13:42:40;6.07;;;1.70;;
9848;SDS011;4963;51.444;6.528;2022-08-21T13:45:13;4.20;;;1.80;;
9848;SDS011;4963;51.444;6.528;2022-08-21T13:47:42;6.05;;;1.60;;
9848;SDS011;4963;51.444;6.528;2022-08-21T13:50:12;2.97;;;1.48;;
9848;SDS011;4963;51.444;6.528;2022-08-21T13:52:46;2.35;;;1.33;;
9848;SDS011;4963;51.444;6.528;2022-08-21T13:55:19;4.43;;;1.92;;
9848;SDS011;4963;51.444;6.528;2022-08-21T13:57:51;4.70;;;1.75;;
9848;SDS011;4963;51.444;6.528;2022-08-21T14:00:26;4.85;;;1.85;;
9848;SDS011;4963;51.444;6.528;2022-08-21T14:02:59;2.88;;;1.58;;
9848;SDS011;4963;51.444;6.528;2022-08-21T14:05:31;6.07;;;1.88;;
9848;SDS011;4963;51.444;6.528;2022-08-21T14:08:01;4.03;;;1.48;;
9848;SDS011;4963;51.444;6.528;2022-08-21T14:10:31;5.03;;;1.65;;
9848;SDS011;4963;51.444;6.528;2022-08-21T14:13:03;4.38;;;1.75;;
9848;SDS011;4963;51.444;6.528;2022-08-21T14:15:33;3.65;;;1.77;;
9848;SDS011;4963;51.444;6.528;2022-08-21T14:18:08;3.53;;;1.80;;
9848;SDS011;4963;51.444;6.528;2022-08-21T14:20:39;4.72;;;1.73;;
9848;SDS011;4963;51.444;6.528;2022-08-21T14:23:06;2.97;;;1.30;;
9848;SDS011;4963;51.444;6.528;2022-08-21T14:25:37;4.00;;;1.75;;
9848;SDS011;4963;51.444;6.528;2022-08-21T14:28:10;3.33;;;1.60;;
9848;SDS011;4963;51.444;6.528;2022-08-21T14:30:42;7.90;;;1.95;;
9848;SDS011;4963;51.444;6.528;2022-08-21T14:33:16;4.22;;;1.67;;
9848;SDS011;4963;51.444;6.528;2022-08-21T14:35:47;3.70;;;1.90;;
9848;SDS011;4963;51.444;6.528;2022-08-21T14:38:14;5.28;;;1.50;;
9848;SDS011;4963;51.444;6.528;2022-08-21T14:40:43;3.20;;;1.40;;
9848;SDS011;4963;51.444;6.528;2022-08-21T14:43:14;3.92;;;1.58;;
9848;SDS011;4963;51.444;6.528;2022-08-21T14:45:41;3.97;;;1.67;;
9848;SDS011;4963;51.444;6.528;2022-08-21T14:48:08;5.32;;;1.95;;
9848;SDS011;4963;51.444;6.528;2022-08-21T14:50:35;4.80;;;1.42;;
9848;SDS011;4963;51.444;6.528;2022-08-21T14:53:03;4.22;;;1.70;;
9848;SDS011;4963;51.444;6.528;2022-08-21T14:55:30;2.35;;;1.30;;
9848;SDS011;4963;51.444;6.528;2022-08-21T14:58:20;2.78;;;1.38;;
9848;SDS011;4963;51.444;6.528;2022-08-21T15:00:49;5.50;;;1.67;;
9848;SDS011;4963;51.444;6.528;2022-08-21T15:03:17;3.97;;;1.75;;
9848;SDS011;4963;51.444;6.528;2022-08-21T15:05:46;4.35;;;1.20;;
9848;SDS011;4963;51.444;6.528;2022-08-21T15:08:13;4.57;;;1.60;;
9848;SDS011;4963;51.444;6.528;2022-08-21T15:10:40;5.50;;;2.00;;
9848;SDS011;4963;51.444;6.528;2022-08-21T15:13:07;6.95;;;1.98;;
9848;SDS011;4963;51.444;6.528;2022-08-21T15:15:38;4.05;;;1.50;;
9848;SDS011;4963;51.444;6.528;2022-08-21T15:18:06;4.43;;;1.73;;
9848;SDS011;4963;51.444;6.528;2022-08-21T15:20:34;2.20;;;1.60;;
9848;SDS011;4963;51.444;6.528;2022-08-21T15:23:01;5.40;;;1.60;;
9848;SDS011;4963;51.444;6.528;2022-08-21T15:25:28;3.05;;;1.58;;
9848;SDS011;4963;51.444;6.528;2022-08-21T15:27:55;5.35;;;1.90;;
9848;SDS011;4963;51.444;6.528;2022-08-21T15:30:22;4.65;;;1.52;;
9848;SDS011;4963;51.444;6.528;2022-08-21T15:32:50;5.10;;;1.75;;
9848;SDS011;4963;51.444;6.528;2022-08-21T15:35:17;7.32;;;1.90;;
9848;SDS011;4963;51.444;6.528;2022-08-21T15:37:44;5.45;;;1.70;;